Time;durP1;ratioP1;P1;durP2;ratioP2;P2;SDS_P1;SDS_P2;PMS_P1;PMS_P2;Temp;Humidity;BMP_temperature;BMP_pressure;BME280_temperature;BME280_humidity;BME280_pressure;Samples;Min_cycle;Max_cycle;Signal;HPM_P1;HPM_P2
2022/08/08 00:00:10;;;;;;;3.75;3.45;;;13.50;99.90;;;;;;4825518;29;20042;-66
2022/08/08 00:03:13;;;;;;;5.35;3.35;;;13.50;99.90;;;;;;4820721;29;20057;-66
2022/08/08 00:05:53;;;;;;;3.47;3.17;;;13.40;99.90;;;;;;4823031;29;20054;-65
2022/08/08 00:08:50;;;;;;;3.60;3.30;;;13.40;99.90;;;;;;4809488;29;20133;-66
2022/08/08 00:11:22;;;;;;;5.25;4.05;;;13.30;99.90;;;;;;4819222;29;20138;-66
2022/08/08 00:14:05;;;;;;;4.97;4.47;;;13.30;99.90;;;;;;4822202;29;20615;-66
2022/08/08 00:16:43;;;;;;;5.32;4.50;;;13.30;99.90;;;;;;4807874;29;20066;-66
2022/08/08 00:19:29;;;;;;;4.43;4.00;;;13.30;99.90;;;;;;4821841;29;20054;-66
2022/08/08 00:22:23;;;;;;;3.95;3.63;;;13.20;99.90;;;;;;4820845;29;20066;-66
2022/08/08 00:24:53;;;;;;;3.78;3.47;;;13.20;99.90;;;;;;4825794;29;20096;-66
2022/08/08 00:27:19;;;;;;;3.88;3.58;;;13.20;99.90;;;;;;4822671;29;20054;-66
2022/08/08 00:30:03;;;;;;;3.67;3.38;;;13.10;99.90;;;;;;4822525;29;20149;-66
2022/08/08 00:32:40;;;;;;;4.22;3.70;;;13.20;99.90;;;;;;4825963;29;20119;-66
2022/08/08 00:35:19;;;;;;;3.75;3.45;;;13.10;99.90;;;;;;4807357;29;20050;-66
2022/08/08 00:38:03;;;;;;;4.20;3.60;;;13.10;99.90;;;;;;4824327;29;20054;-66
2022/08/08 00:40:29;;;;;;;4.32;3.72;;;13.00;99.90;;;;;;4824447;29;20051;-66
2022/08/08 00:43:16;;;;;;;5.28;3.47;;;13.00;99.90;;;;;;4825797;29;20068;-66
2022/08/08 00:46:12;;;;;;;4.13;3.72;;;13.00;99.90;;;;;;4803563;29;20408;-66
2022/08/08 00:49:08;;;;;;;3.90;3.60;;;13.00;99.90;;;;;;4823149;29;20133;-66
2022/08/08 00:52:10;;;;;;;3.92;3.50;;;13.00;99.90;;;;;;4824552;29;20054;-66
2022/08/08 00:55:07;;;;;;;3.80;3.30;;;12.90;99.90;;;;;;4808264;29;20062;-66
2022/08/08 00:57:52;;;;;;;7.18;3.88;;;12.90;99.90;;;;;;4823875;29;20133;-66
2022/08/08 01:00:27;;;;;;;4.47;3.33;;;12.80;99.90;;;;;;4823220;29;20126;-66
2022/08/08 01:03:28;;;;;;;3.70;3.40;;;12.80;99.90;;;;;;4822942;29;20078;-65
2022/08/08 01:06:31;;;;;;;3.85;3.45;;;12.80;99.90;;;;;;4773711;29;20064;-66
2022/08/08 01:09:26;;;;;;;5.00;3.55;;;12.80;99.90;;;;;;4819329;29;20065;-66
2022/08/08 01:12:23;;;;;;;3.92;3.22;;;12.70;99.90;;;;;;4804577;29;20086;-65
2022/08/08 01:15:19;;;;;;;4.00;3.70;;;12.70;99.90;;;;;;4824597;29;20058;-66
2022/08/08 01:18:13;;;;;;;5.82;3.97;;;12.60;99.90;;;;;;4820744;29;20122;-65
2022/08/08 01:21:02;;;;;;;10.07;4.95;;;12.60;99.90;;;;;;4822446;29;20054;-66
2022/08/08 01:24:05;;;;;;;4.30;3.90;;;12.60;99.90;;;;;;4824372;29;20078;-66
2022/08/08 01:26:46;;;;;;;4.45;4.05;;;12.60;99.90;;;;;;4823015;29;20058;-65
2022/08/08 01:29:33;;;;;;;4.18;3.85;;;12.60;99.90;;;;;;4812245;29;20054;-66
2022/08/08 01:32:19;;;;;;;4.00;3.55;;;12.60;99.90;;;;;;4806676;29;20061;-66
2022/08/08 01:35:23;;;;;;;5.90;4.30;;;12.50;99.90;;;;;;4807261;29;20062;-66
2022/08/08 01:38:26;;;;;;;4.47;3.60;;;12.50;99.90;;;;;;4806088;29;20112;-66
2022/08/08 01:40:55;;;;;;;6.53;3.70;;;12.50;99.90;;;;;;4823664;29;20168;-66
2022/08/08 01:43:32;;;;;;;5.97;4.93;;;12.50;99.90;;;;;;4822230;29;20432;-66
2022/08/08 01:46:13;;;;;;;5.30;4.80;;;12.50;99.90;;;;;;4793201;29;20054;-66
2022/08/08 01:48:56;;;;;;;5.85;5.25;;;12.50;99.90;;;;;;4823019;29;20107;-66
2022/08/08 01:51:40;;;;;;;6.38;5.80;;;12.50;99.90;;;;;;4820762;29;20411;-66
2022/08/08 01:54:12;;;;;;;9.32;6.60;;;12.50;99.90;;;;;;4823170;29;20054;-67
2022/08/08 01:56:40;;;;;;;7.03;6.32;;;12.50;99.90;;;;;;4802089;29;20462;-66
2022/08/08 01:59:24;;;;;;;8.75;6.55;;;12.50;99.90;;;;;;4824804;29;20187;-66
2022/08/08 02:02:28;;;;;;;9.95;7.13;;;12.60;99.90;;;;;;4819697;29;20073;-66
2022/08/08 02:05:01;;;;;;;7.57;6.00;;;12.60;99.90;;;;;;4808028;29;20100;-66
2022/08/08 02:07:45;;;;;;;7.10;5.63;;;12.50;99.90;;;;;;4820656;29;20055;-66
2022/08/08 02:10:48;;;;;;;6.38;5.10;;;12.50;99.90;;;;;;4807149;29;20062;-66
2022/08/08 02:13:19;;;;;;;7.13;5.47;;;12.50;99.90;;;;;;4817335;29;20058;-66
2022/08/08 02:16:23;;;;;;;6.60;6.00;;;12.50;99.90;;;;;;4822795;29;20516;-66
2022/08/08 02:19:10;;;;;;;6.30;5.72;;;12.50;99.90;;;;;;4794137;29;20082;-66
2022/08/08 02:25:01;;;;;;;6.95;5.32;;;12.40;99.90;;;;;;4815728;29;20404;-66
2022/08/08 02:27:42;;;;;;;5.45;4.95;;;12.40;99.90;;;;;;4813759;29;20126;-66
2022/08/08 02:30:24;;;;;;;8.85;5.90;;;12.40;99.90;;;;;;4822766;29;20096;-66
2022/08/08 02:33:11;;;;;;;6.43;5.67;;;12.40;99.90;;;;;;4821142;29;20484;-66
2022/08/08 02:35:42;;;;;;;5.90;4.97;;;12.40;99.90;;;;;;4792175;29;20836;-66
2022/08/08 02:38:26;;;;;;;5.43;4.93;;;12.40;99.90;;;;;;4809922;29;20454;-66
2022/08/08 02:41:29;;;;;;;5.93;4.47;;;12.30;99.90;;;;;;4820657;29;20062;-66
2022/08/08 02:43:57;;;;;;;7.13;4.82;;;12.20;99.90;;;;;;4807322;29;20098;-66
2022/08/08 02:46:50;;;;;;;5.40;4.93;;;12.20;99.90;;;;;;4820709;29;20061;-66
2022/08/08 02:49:35;;;;;;;5.05;4.60;;;12.20;99.90;;;;;;4806528;29;20497;-66
2022/08/08 02:52:22;;;;;;;7.80;4.40;;;12.20;99.90;;;;;;4819851;29;20095;-66
2022/08/08 02:54:50;;;;;;;4.97;4.53;;;12.20;99.90;;;;;;4822712;29;20058;-66
2022/08/08 02:57:43;;;;;;;4.28;3.88;;;12.10;99.90;;;;;;4820922;29;20058;-66
2022/08/08 03:00:20;;;;;;;5.00;4.50;;;12.10;99.90;;;;;;4823837;29;20071;-66
2022/08/08 03:03:18;;;;;;;5.90;5.20;;;12.10;99.90;;;;;;4821434;29;20090;-66
2022/08/08 03:06:15;;;;;;;5.75;5.25;;;12.10;99.90;;;;;;4822870;29;20141;-66
2022/08/08 03:08:40;;;;;;;5.88;5.05;;;12.10;99.90;;;;;;4820299;29;20162;-66
2022/08/08 03:11:06;;;;;;;5.38;4.22;;;12.10;99.90;;;;;;4803892;29;20172;-66
2022/08/08 03:14:22;;;;;;;4.80;4.40;;;12.10;99.90;;;;;;4823636;29;20058;-66
2022/08/08 03:16:56;;;;;;;6.95;5.35;;;12.10;99.90;;;;;;4819290;29;20141;-66
2022/08/08 03:20:04;;;;;;;5.93;5.43;;;12.10;99.90;;;;;;4820908;29;20058;-66
2022/08/08 03:22:31;;;;;;;7.07;5.82;;;12.10;99.90;;;;;;4821756;29;20065;-66
2022/08/08 03:24:57;;;;;;;8.38;6.22;;;12.00;99.90;;;;;;4822797;29;20111;-66
2022/08/08 03:27:38;;;;;;;6.85;4.97;;;12.10;99.90;;;;;;4813655;29;20070;-66
2022/08/08 03:30:55;;;;;;;5.88;5.28;;;12.00;99.90;;;;;;4805087;29;20065;-66
2022/08/08 03:33:52;;;;;;;;;;;;;;;;;;;;;
2022/08/08 03:36:29;;;;;;;5.75;5.15;;;12.10;99.90;;;;;;4813686;29;20054;-66
2022/08/08 03:38:54;;;;;;;6.05;4.97;;;12.20;99.90;;;;;;4822140;29;20048;-66
2022/08/08 03:41:45;;;;;;;5.20;4.70;;;12.00;99.90;;;;;;4829810;29;20050;-66
2022/08/08 03:44:17;;;;;;;5.75;5.05;;;12.00;99.90;;;;;;4799344;29;20211;-66
2022/08/08 03:46:44;;;;;;;5.32;4.82;;;12.00;99.90;;;;;;4803694;29;20082;-66
2022/08/08 03:49:17;;;;;;;5.72;4.60;;;11.90;99.90;;;;;;4817917;29;20051;-66
2022/08/08 03:52:09;;;;;;;5.22;4.65;;;11.90;99.90;;;;;;4815472;29;20062;-66
2022/08/08 03:54:35;;;;;;;9.03;4.77;;;11.80;99.90;;;;;;4823123;29;20050;-67
2022/08/08 03:57:28;;;;;;;4.78;4.30;;;11.80;99.90;;;;;;4803585;29;20058;-66
2022/08/08 03:59:53;;;;;;;4.93;4.43;;;11.80;99.90;;;;;;4823236;29;20050;-66
2022/08/08 04:02:19;;;;;;;4.65;4.20;;;11.80;99.90;;;;;;4816987;29;20123;-66
2022/08/08 04:04:45;;;;;;;5.13;4.63;;;11.70;99.90;;;;;;4826045;29;20501;-66
2022/08/08 04:07:11;;;;;;;5.15;4.65;;;11.70;99.90;;;;;;4806126;29;20058;-66
2022/08/08 04:09:37;;;;;;;7.13;4.60;;;11.70;99.90;;;;;;4825233;29;20057;-66
2022/08/08 04:12:04;;;;;;;6.05;4.70;;;11.70;99.90;;;;;;4821325;29;20061;-66
2022/08/08 04:14:29;;;;;;;5.82;4.75;;;11.70;99.90;;;;;;4823547;29;20102;-66
2022/08/08 04:16:55;;;;;;;5.05;4.60;;;11.70;99.90;;;;;;4825497;29;20130;-66
2022/08/08 04:19:21;;;;;;;5.82;4.28;;;11.70;99.90;;;;;;4809032;29;20174;-66
2022/08/08 04:21:46;;;;;;;4.47;4.07;;;11.70;99.90;;;;;;4819442;29;20065;-66
2022/08/08 04:24:12;;;;;;;5.07;4.57;;;11.70;99.90;;;;;;4822818;29;20054;-66
2022/08/08 04:26:38;;;;;;;5.35;4.20;;;11.70;99.90;;;;;;4808552;29;20062;-66
2022/08/08 04:29:03;;;;;;;4.93;4.40;;;11.70;99.90;;;;;;4825052;29;20058;-66
2022/08/08 04:31:29;;;;;;;4.40;3.95;;;11.70;99.90;;;;;;4824337;29;20061;-66
2022/08/08 04:33:55;;;;;;;4.55;4.15;;;11.70;99.90;;;;;;4808004;29;20062;-66
2022/08/08 04:36:20;;;;;;;6.18;5.05;;;11.70;99.90;;;;;;4824229;29;20089;-66
2022/08/08 04:38:46;;;;;;;5.15;4.65;;;11.70;99.90;;;;;;4825876;29;20149;-66
2022/08/08 04:41:11;;;;;;;5.47;4.70;;;11.70;99.90;;;;;;4824974;29;20484;-66
2022/08/08 04:43:37;;;;;;;5.82;5.30;;;11.70;99.90;;;;;;4826069;29;20054;-66
2022/08/08 04:46:04;;;;;;;6.13;5.40;;;11.70;99.90;;;;;;4807319;29;20050;-66
2022/08/08 04:48:30;;;;;;;5.63;5.10;;;11.70;99.90;;;;;;4797154;29;20133;-66
2022/08/08 04:51:01;;;;;;;6.50;5.13;;;11.80;99.90;;;;;;4823357;29;20088;-66
2022/08/08 04:53:27;;;;;;;6.38;4.82;;;11.70;99.90;;;;;;4806747;29;20064;-66
2022/08/08 04:55:52;;;;;;;5.40;4.78;;;11.80;99.90;;;;;;4804154;29;20054;-66
2022/08/08 04:58:18;;;;;;;6.55;4.78;;;11.80;99.90;;;;;;4825585;29;20042;-66
2022/08/08 05:01:09;;;;;;;4.90;4.50;;;11.80;99.90;;;;;;4824047;29;20058;-66
2022/08/08 05:03:35;;;;;;;4.35;3.97;;;11.90;99.90;;;;;;4823636;29;20055;-66
2022/08/08 05:06:30;;;;;;;4.90;4.40;;;11.90;99.90;;;;;;4823211;29;20114;-66
2022/08/08 05:08:56;;;;;;;5.25;4.30;;;12.00;99.90;;;;;;4823371;29;20061;-66
2022/08/08 05:11:48;;;;;;;4.70;4.18;;;12.20;99.90;;;;;;4823460;29;20047;-66
2022/08/08 05:14:39;;;;;;;6.90;5.15;;;12.10;99.90;;;;;;4815136;29;20054;-66
2022/08/08 05:17:59;;;;;;;5.25;4.07;;;12.10;99.90;;;;;;4822435;29;20054;-66
2022/08/08 05:20:50;;;;;;;4.80;4.40;;;12.20;99.90;;;;;;4822375;29;20137;-66
2022/08/08 05:23:15;;;;;;;5.57;5.07;;;12.20;99.90;;;;;;4821912;29;20497;-66
2022/08/08 05:25:41;;;;;;;10.38;5.00;;;12.20;99.90;;;;;;4805602;29;20062;-66
2022/08/08 05:28:07;;;;;;;5.53;5.03;;;12.30;99.90;;;;;;4805512;29;20505;-66
2022/08/08 05:30:32;;;;;;;5.90;5.20;;;12.40;99.90;;;;;;4818285;29;20054;-66
2022/08/08 05:33:01;;;;;;;4.70;4.22;;;12.40;99.90;;;;;;4824474;29;20158;-66
2022/08/08 05:35:30;;;;;;;6.47;5.35;;;12.50;99.90;;;;;;4822676;29;20047;-66
2022/08/08 05:38:05;;;;;;;5.28;4.68;;;12.60;99.90;;;;;;4818745;29;20503;-66
2022/08/08 05:40:33;;;;;;;6.97;4.32;;;12.80;99.90;;;;;;4825213;29;20050;-66
2022/08/08 05:43:04;;;;;;;7.00;5.10;;;13.00;99.90;;;;;;4822146;29;20062;-66
2022/08/08 05:45:36;;;;;;;5.05;4.55;;;13.20;99.90;;;;;;4823274;29;20050;-66
2022/08/08 05:48:03;;;;;;;;;;;13.30;99.90;;;;;;4820700;29;20112;-66
2022/08/08 05:50:30;;;;;;;6.43;5.05;;;13.40;99.90;;;;;;4823987;29;19933;-66
2022/08/08 05:52:57;;;;;;;7.07;5.43;;;13.90;99.90;;;;;;4821079;29;20095;-66
2022/08/08 05:55:23;;;;;;;5.88;4.95;;;15.10;99.90;;;;;;4824460;29;20054;-66
2022/08/08 05:58:18;;;;;;;5.45;4.78;;;16.50;99.90;;;;;;4807370;29;20054;-66
2022/08/08 06:00:47;;;;;;;5.43;4.68;;;17.70;99.90;;;;;;4823932;29;20066;-66
2022/08/08 06:03:16;;;;;;;5.00;4.60;;;18.60;99.90;;;;;;4801597;29;20123;-66
2022/08/08 06:06:34;;;;;;;6.53;4.75;;;19.40;99.90;;;;;;4809199;29;20054;-66
2022/08/08 06:24:59;;;;;;;7.50;4.70;;;21.00;99.90;;;;;;4941843;24;20053;-66
2022/08/08 06:27:49;;;;;;;6.07;4.18;;;20.10;99.90;;;;;;4841958;29;20065;-67
2022/08/08 06:30:15;;;;;;;5.18;4.07;;;19.40;99.90;;;;;;4842172;29;20065;-66
2022/08/08 06:52:47;;;;;;;4.38;3.65;;;18.10;99.90;;;;;;4797909;29;20428;-67
2022/08/08 06:55:14;;;;;;;10.57;4.03;;;18.20;99.90;;;;;;4824100;29;20066;-67
2022/08/08 06:57:39;;;;;;;6.03;3.95;;;18.30;99.90;;;;;;4823782;29;20440;-67
2022/08/08 07:00:06;;;;;;;7.35;4.07;;;18.30;99.90;;;;;;4837778;29;20061;-67
2022/08/08 07:02:34;;;;;;;4.97;4.05;;;18.40;99.90;;;;;;4823780;29;20194;-67
2022/08/08 07:05:08;;;;;;;7.07;3.80;;;18.50;99.90;;;;;;4803727;29;20137;-67
2022/08/08 07:07:52;;;;;;;5.68;3.95;;;18.70;99.90;;;;;;4811885;29;20051;-67
2022/08/08 07:10:20;;;;;;;8.13;3.70;;;18.80;99.90;;;;;;4820528;29;20149;-67
2022/08/08 07:13:04;;;;;;;5.53;3.60;;;18.80;99.90;;;;;;4813620;29;20062;-67
2022/08/08 07:16:07;;;;;;;7.88;4.03;;;19.00;99.90;;;;;;4807764;29;20401;-67
2022/08/08 07:18:52;;;;;;;7.28;3.75;;;19.10;99.90;;;;;;4823572;29;20520;-67
2022/08/08 07:21:21;;;;;;;10.77;3.10;;;19.30;99.90;;;;;;4837153;29;20065;-67
2022/08/08 07:23:57;;;;;;;6.38;3.20;;;19.50;99.90;;;;;;4823996;29;20154;-67
2022/08/08 07:26:25;;;;;;;3.70;2.67;;;19.70;99.90;;;;;;4823575;29;20057;-67
2022/08/08 07:28:52;;;;;;;6.38;2.60;;;19.80;99.90;;;;;;4823954;29;20066;-67
2022/08/08 07:31:19;;;;;;;7.20;2.80;;;19.90;99.90;;;;;;4821975;29;20069;-67
2022/08/08 07:33:47;;;;;;;6.05;2.75;;;20.00;99.90;;;;;;4805573;29;20063;-67
2022/08/08 07:36:14;;;;;;;5.68;2.10;;;20.00;99.90;;;;;;4805741;29;20141;-67
2022/08/08 07:38:40;;;;;;;7.57;2.60;;;20.10;99.90;;;;;;4807453;29;20485;-67
2022/08/08 07:41:07;;;;;;;4.25;1.77;;;20.20;99.90;;;;;;4808989;29;20142;-67
2022/08/08 07:43:33;;;;;;;5.72;2.13;;;20.20;99.90;;;;;;4808952;29;20404;-67
2022/08/08 07:45:58;;;;;;;4.50;1.70;;;20.40;99.90;;;;;;4811639;29;20046;-67
2022/08/08 07:48:24;;;;;;;4.43;1.88;;;20.40;99.90;;;;;;4841041;29;20409;-67
2022/08/08 07:50:53;;;;;;;4.30;1.60;;;20.50;99.90;;;;;;4826191;29;20060;-67
2022/08/08 07:53:30;;;;;;;4.38;1.90;;;20.60;99.90;;;;;;4826759;29;20436;-67
2022/08/08 07:55:59;;;;;;;5.90;1.60;;;20.70;99.90;;;;;;4810938;29;20081;-68
2022/08/08 07:58:31;;;;;;;4.10;1.73;;;20.90;99.90;;;;;;4826854;29;20116;-68
2022/08/08 08:01:05;;;;;;;4.47;1.52;;;20.90;99.90;;;;;;4826488;29;20089;-68
2022/08/08 08:03:54;;;;;;;4.47;1.67;;;21.10;99.90;;;;;;4826801;29;20412;-67
2022/08/08 08:06:20;;;;;;;5.80;1.45;;;21.20;99.90;;;;;;4826197;29;20468;-68
2022/08/08 08:08:53;;;;;;;4.82;1.50;;;21.20;99.90;;;;;;4823868;29;20561;-68
2022/08/08 08:11:22;;;;;;;4.63;1.30;;;21.40;99.90;;;;;;4840635;29;20066;-67
2022/08/08 08:14:16;;;;;;;5.57;2.00;;;21.60;99.90;;;;;;4807376;29;20102;-68
2022/08/08 08:16:44;;;;;;;4.20;1.60;;;21.70;99.90;;;;;;4807888;29;20051;-68
2022/08/08 08:19:11;;;;;;;4.05;1.55;;;21.60;99.90;;;;;;4840403;29;20069;-68
2022/08/08 08:21:42;;;;;;;4.90;1.92;;;21.30;99.90;;;;;;4818884;29;20046;-67
2022/08/08 08:24:08;;;;;;;3.60;1.48;;;21.20;99.90;;;;;;4825041;29;20547;-67
2022/08/08 08:26:34;;;;;;;5.00;1.40;;;21.20;99.90;;;;;;4793824;29;20086;-68
2022/08/08 08:28:59;;;;;;;6.97;1.83;;;21.20;99.90;;;;;;4825116;29;20134;-67
2022/08/08 08:31:25;;;;;;;5.50;1.65;;;21.10;99.90;;;;;;4826582;29;20154;-68
2022/08/08 08:33:51;;;;;;;3.88;1.83;;;21.00;99.90;;;;;;4824952;29;20480;-69
2022/08/08 08:36:17;;;;;;;4.45;1.30;;;21.00;99.90;;;;;;4823002;29;20045;-68
2022/08/08 08:38:43;;;;;;;3.78;1.58;;;21.20;99.90;;;;;;4826290;29;20130;-67
2022/08/08 08:41:13;;;;;;;3.83;1.45;;;21.40;99.90;;;;;;4839609;29;20231;-67
2022/08/08 08:43:40;;;;;;;3.80;1.30;;;21.70;99.90;;;;;;4825787;29;20131;-68
2022/08/08 08:46:10;;;;;;;3.17;1.60;;;22.10;99.90;;;;;;4825894;29;20063;-68
2022/08/08 08:48:36;;;;;;;3.83;1.25;;;22.40;99.90;;;;;;4824376;29;20504;-68
2022/08/08 08:51:04;;;;;;;2.38;1.02;;;22.50;99.90;;;;;;4809482;29;20782;-68
2022/08/08 08:53:35;;;;;;;2.83;1.30;;;22.50;99.90;;;;;;4824780;29;20062;-68
2022/08/08 08:56:02;;;;;;;2.80;1.58;;;22.40;99.90;;;;;;4825485;29;20062;-68
2022/08/08 08:58:34;;;;;;;2.38;1.40;;;22.40;99.90;;;;;;4855154;29;20058;-68
2022/08/08 09:01:01;;;;;;;3.38;1.20;;;22.40;99.90;;;;;;4824754;29;20064;-68
2022/08/08 09:03:28;;;;;;;2.90;1.20;;;22.20;99.90;;;;;;4826042;29;20081;-67
2022/08/08 09:05:55;;;;;;;4.65;1.80;;;22.30;99.90;;;;;;4824022;29;20058;-69
2022/08/08 09:08:24;;;;;;;3.38;1.50;;;22.10;99.90;;;;;;4825316;29;20095;-67
2022/08/08 09:10:50;;;;;;;1.77;1.15;;;22.00;99.90;;;;;;4793628;29;20054;-68
2022/08/08 09:13:17;;;;;;;3.13;1.30;;;22.10;99.90;;;;;;4791235;29;20062;-67
2022/08/08 09:15:43;;;;;;;4.15;1.67;;;22.30;99.90;;;;;;4806812;29;20058;-67
2022/08/08 09:18:09;;;;;;;3.28;1.40;;;22.50;99.90;;;;;;4807545;29;20197;-68
2022/08/08 09:20:36;;;;;;;2.28;1.23;;;22.50;99.90;;;;;;4819072;29;20158;-69
2022/08/08 09:23:03;;;;;;;3.20;1.40;;;22.30;99.90;;;;;;4824310;29;20484;-68
2022/08/08 09:25:29;;;;;;;4.70;1.33;;;22.10;99.90;;;;;;4824756;29;20074;-67
2022/08/08 09:27:56;;;;;;;3.20;1.45;;;21.90;99.90;;;;;;4824434;29;20090;-67
2022/08/08 09:30:24;;;;;;;3.22;1.05;;;21.70;99.90;;;;;;4825265;29;20404;-67
2022/08/08 09:32:52;;;;;;;4.15;1.30;;;21.60;99.90;;;;;;4808770;29;20133;-67
2022/08/08 09:35:21;;;;;;;3.25;1.00;;;21.50;99.90;;;;;;4825596;29;20163;-67
2022/08/08 09:37:49;;;;;;;2.88;1.00;;;21.50;99.90;;;;;;4808016;29;20058;-67
2022/08/08 09:40:17;;;;;;;2.47;1.17;;;21.70;99.90;;;;;;4808621;29;20054;-67
2022/08/08 09:42:44;;;;;;;3.17;1.20;;;21.90;99.90;;;;;;4823560;29;20411;-68
2022/08/08 09:45:11;;;;;;;1.35;0.80;;;22.00;99.90;;;;;;4808033;29;20141;-67
2022/08/08 09:47:39;;;;;;;1.73;0.93;;;22.10;99.90;;;;;;4824997;29;20058;-68
2022/08/08 09:50:10;;;;;;;2.35;1.00;;;22.40;99.90;;;;;;4808481;29;20129;-67
2022/08/08 09:52:38;;;;;;;;;;;22.50;99.90;;;;;;4807792;29;20058;-68
2022/08/08 09:55:03;;;;;;;2.05;0.93;;;22.80;99.90;;;;;;4808471;29;20279;-68
2022/08/08 09:57:35;;;;;;;2.83;1.10;;;22.90;99.90;;;;;;4790353;29;20062;-68
2022/08/08 10:00:03;;;;;;;4.18;1.33;;;23.00;99.90;;;;;;4812376;29;20125;-68
2022/08/08 10:02:35;;;;;;;2.50;1.17;;;23.10;99.90;;;;;;4820995;29;20449;-68
2022/08/08 10:05:12;;;;;;;1.85;0.85;;;23.10;99.90;;;;;;4824441;29;20081;-68
2022/08/08 10:07:50;;;;;;;2.38;1.20;;;23.00;99.90;;;;;;4804202;29;20058;-67
2022/08/08 10:10:28;;;;;;;1.88;1.15;;;23.00;99.90;;;;;;4806963;29;20110;-67
2022/08/08 10:12:55;;;;;;;2.25;0.90;;;22.90;99.90;;;;;;4808081;29;20492;-68
2022/08/08 10:15:22;;;;;;;4.53;1.23;;;22.90;99.90;;;;;;4824873;29;20050;-68
2022/08/08 10:17:51;;;;;;;1.48;1.02;;;22.80;99.90;;;;;;4824382;29;20060;-68
2022/08/08 10:20:17;;;;;;;1.73;1.00;;;22.90;99.90;;;;;;4824753;29;20137;-68
2022/08/08 10:22:52;;;;;;;2.40;1.13;;;22.90;99.90;;;;;;4821646;29;20141;-68
2022/08/08 10:25:19;;;;;;;2.92;1.00;;;22.90;99.90;;;;;;4824514;29;20080;-68
2022/08/08 10:27:50;;;;;;;2.42;1.20;;;23.00;99.90;;;;;;4827705;29;20142;-68
2022/08/08 10:30:16;;;;;;;2.65;1.13;;;23.00;99.90;;;;;;4791731;29;20057;-68
2022/08/08 10:32:48;;;;;;;1.85;0.90;;;23.10;99.90;;;;;;4820109;29;20503;-68
2022/08/08 10:35:16;;;;;;;1.65;1.35;;;23.10;99.90;;;;;;4822944;29;20058;-68
2022/08/08 10:38:00;;;;;;;4.50;1.17;;;23.10;99.90;;;;;;4823840;29;20062;-67
2022/08/08 10:40:27;;;;;;;2.47;1.10;;;23.20;99.90;;;;;;4823111;29;20519;-67
2022/08/08 10:42:58;;;;;;;1.38;1.10;;;23.20;99.90;;;;;;4807728;29;20087;-68
2022/08/08 10:45:24;;;;;;;4.90;1.30;;;23.20;99.90;;;;;;4807695;29;20091;-67
2022/08/08 10:47:58;;;;;;;2.13;1.00;;;23.20;99.90;;;;;;4837588;29;20531;-68
2022/08/08 10:50:36;;;;;;;2.38;0.90;;;23.30;98.10;;;;;;4834956;29;20046;-68
2022/08/08 10:53:07;;;;;;;2.95;1.15;;;23.70;97.40;;;;;;4821399;29;20097;-68
2022/08/08 10:55:34;;;;;;;2.47;0.90;;;23.60;96.80;;;;;;4783168;29;20054;-68
2022/08/08 10:58:05;;;;;;;2.03;1.10;;;23.90;95.70;;;;;;4807648;29;20108;-68
2022/08/08 11:00:32;;;;;;;2.55;0.80;;;24.10;94.20;;;;;;4823298;29;20093;-68
2022/08/08 11:03:10;;;;;;;2.10;1.02;;;24.30;92.90;;;;;;4823865;29;20069;-68
2022/08/08 11:05:48;;;;;;;2.55;0.80;;;24.10;90.30;;;;;;4823965;29;20395;-67
2022/08/08 11:08:22;;;;;;;2.03;0.70;;;23.90;89.90;;;;;;4823747;29;20062;-69
2022/08/08 11:10:59;;;;;;;1.05;0.75;;;23.60;91.80;;;;;;4822397;29;20110;-68
2022/08/08 11:13:25;;;;;;;1.77;0.70;;;23.30;92.50;;;;;;4810545;29;20108;-68
2022/08/08 11:15:53;;;;;;;1.67;0.70;;;23.20;94.10;;;;;;4826857;29;20484;-68
2022/08/08 11:18:19;;;;;;;1.17;0.70;;;23.10;95.40;;;;;;4827201;29;20066;-68
2022/08/08 11:20:48;;;;;;;2.13;1.02;;;23.00;96.20;;;;;;4826629;29;20357;-65
2022/08/08 11:23:19;;;;;;;2.67;0.70;;;23.00;95.70;;;;;;4827086;29;20078;-67
2022/08/08 11:25:45;;;;;;;1.27;0.80;;;23.00;95.30;;;;;;4806861;29;20058;-66
2022/08/08 11:28:13;;;;;;;2.08;0.77;;;23.00;95.50;;;;;;4793260;29;20441;-66
2022/08/08 11:30:40;;;;;;;2.33;1.23;;;23.00;95.80;;;;;;4808918;29;20054;-66
2022/08/08 11:33:08;;;;;;;0.95;0.80;;;23.00;96.60;;;;;;4813321;29;20060;-67
2022/08/08 11:35:33;;;;;;;0.90;0.70;;;23.10;96.70;;;;;;4827363;29;20098;-65
2022/08/08 11:38:00;;;;;;;2.67;0.88;;;23.20;96.30;;;;;;4810706;29;20466;-67
2022/08/08 11:40:26;;;;;;;1.70;0.85;;;23.20;95.90;;;;;;4807682;29;20088;-66
2022/08/08 11:42:53;;;;;;;2.30;0.93;;;23.20;95.70;;;;;;4826321;29;20138;-67
2022/08/08 11:45:21;;;;;;;2.72;1.05;;;23.20;95.90;;;;;;4810739;29;20062;-66
2022/08/08 11:47:47;;;;;;;0.98;0.55;;;23.30;95.40;;;;;;4825742;29;20085;-67
2022/08/08 11:50:18;;;;;;;1.00;0.90;;;23.30;95.10;;;;;;4825523;29;20059;-66
2022/08/08 11:52:45;;;;;;;1.42;0.60;;;23.50;93.20;;;;;;4825013;29;20082;-67
2022/08/08 11:55:26;;;;;;;2.15;0.90;;;23.70;92.30;;;;;;4810672;29;20105;-67
2022/08/08 11:58:30;;;;;;;1.53;0.67;;;23.90;89.90;;;;;;4824975;29;20183;-67
2022/08/08 12:00:57;;;;;;;1.98;0.70;;;24.00;85.50;;;;;;4813514;29;20086;-67
2022/08/08 12:03:24;;;;;;;3.15;0.85;;;23.90;88.00;;;;;;4826563;29;20065;-67
2022/08/08 12:05:51;;;;;;;2.25;0.65;;;24.00;87.70;;;;;;4825375;29;20081;-68
2022/08/08 12:08:30;;;;;;;2.10;0.90;;;24.00;85.10;;;;;;4806226;29;20494;-66
2022/08/08 12:11:09;;;;;;;2.45;0.70;;;24.00;82.80;;;;;;4826222;29;20058;-66
2022/08/08 12:13:35;;;;;;;2.72;0.80;;;24.10;82.70;;;;;;4826319;29;20172;-66
2022/08/08 12:16:09;;;;;;;1.67;0.80;;;24.20;81.60;;;;;;4810425;29;20241;-66
2022/08/08 12:18:49;;;;;;;1.40;0.82;;;24.30;78.70;;;;;;4826449;29;20054;-66
2022/08/08 12:21:27;;;;;;;2.35;0.90;;;24.20;77.10;;;;;;4826027;29;20157;-67
2022/08/08 12:24:11;;;;;;;1.40;0.70;;;24.10;78.30;;;;;;4817276;29;20073;-67
2022/08/08 12:26:44;;;;;;;1.02;0.68;;;24.00;77.20;;;;;;4807832;29;20062;-67
2022/08/08 12:29:47;;;;;;;1.60;0.88;;;23.70;83.90;;;;;;4808042;29;20523;-67
2022/08/08 12:32:15;;;;;;;1.88;0.93;;;23.60;89.70;;;;;;4798473;29;20481;-66
2022/08/08 12:34:56;;;;;;;3.25;1.00;;;23.40;91.70;;;;;;4825374;29;20061;-66
2022/08/08 12:37:28;;;;;;;2.47;1.05;;;23.30;93.60;;;;;;4825588;29;20138;-66
2022/08/08 12:39:54;;;;;;;1.58;0.95;;;23.20;94.60;;;;;;4825762;29;20054;-66
2022/08/08 12:42:20;;;;;;;2.33;0.70;;;23.00;95.60;;;;;;4825731;29;20062;-67
2022/08/08 12:44:46;;;;;;;1.27;0.70;;;23.00;96.50;;;;;;4825735;29;20090;-66
2022/08/08 12:47:15;;;;;;;1.63;1.00;;;22.90;96.40;;;;;;4820792;29;20085;-65
2022/08/08 12:49:44;;;;;;;3.58;0.80;;;22.90;96.60;;;;;;4821191;29;20058;-68
2022/08/08 12:52:19;;;;;;;2.08;0.75;;;22.90;96.80;;;;;;4808966;29;20495;-66
2022/08/08 12:54:45;;;;;;;2.08;0.90;;;22.90;96.60;;;;;;4825442;29;20459;-67
2022/08/08 12:57:15;;;;;;;2.95;1.00;;;23.00;96.60;;;;;;4809291;29;20093;-66
2022/08/08 12:59:51;;;;;;;6.78;1.48;;;23.00;96.80;;;;;;4824705;29;20480;-67
2022/08/08 13:02:28;;;;;;;1.27;0.82;;;23.00;96.60;;;;;;4824372;29;20076;-66
2022/08/08 13:04:56;;;;;;;1.83;0.70;;;23.10;96.70;;;;;;4825574;29;20058;-67
2022/08/08 13:07:35;;;;;;;2.08;0.70;;;23.10;96.50;;;;;;4824907;29;20441;-66
2022/08/08 13:10:03;;;;;;;1.80;0.70;;;23.20;96.80;;;;;;4808799;29;20061;-66
2022/08/08 13:12:43;;;;;;;3.75;1.10;;;23.10;97.10;;;;;;4808584;29;20051;-67
2022/08/08 13:15:11;;;;;;;1.48;0.75;;;23.20;98.20;;;;;;4824679;29;20134;-66
2022/08/08 13:17:37;;;;;;;2.67;1.02;;;23.20;98.30;;;;;;4814503;29;20060;-67
2022/08/08 13:20:11;;;;;;;3.15;1.10;;;23.20;98.80;;;;;;4807755;29;20400;-66
2022/08/08 13:22:37;;;;;;;1.25;0.70;;;23.30;98.70;;;;;;4804538;29;20062;-66
2022/08/08 13:25:03;;;;;;;1.85;0.80;;;23.30;98.50;;;;;;4791949;29;20058;-66
2022/08/08 13:27:30;;;;;;;1.67;0.90;;;23.30;98.50;;;;;;4820879;29;20043;-67
2022/08/08 13:30:01;;;;;;;2.28;0.90;;;23.40;98.40;;;;;;4824668;29;20571;-66
2022/08/08 13:32:34;;;;;;;1.35;0.90;;;23.30;98.10;;;;;;4824903;29;20482;-66
2022/08/08 13:35:00;;;;;;;1.85;0.60;;;23.30;97.50;;;;;;4830315;29;20110;-67
2022/08/08 13:37:27;;;;;;;3.20;1.00;;;23.40;96.40;;;;;;4823028;29;20122;-67
2022/08/08 13:39:54;;;;;;;2.60;0.80;;;23.40;95.00;;;;;;4825319;29;20054;-67
2022/08/08 13:42:21;;;;;;;2.55;0.90;;;23.50;94.30;;;;;;4807883;29;20430;-66
2022/08/08 13:44:55;;;;;;;1.65;1.10;;;23.50;94.40;;;;;;4824935;29;20121;-66
2022/08/08 13:47:20;;;;;;;1.67;0.70;;;23.60;93.00;;;;;;4824444;29;20066;-67
2022/08/08 13:50:02;;;;;;;2.42;0.90;;;23.70;92.00;;;;;;4807620;29;20047;-68
2022/08/08 13:52:28;;;;;;;2.85;0.77;;;23.80;89.70;;;;;;4823801;29;20054;-67
2022/08/08 13:54:56;;;;;;;0.73;0.60;;;23.90;91.10;;;;;;4802501;29;20058;-67
2022/08/08 13:57:30;;;;;;;1.25;0.70;;;23.90;90.80;;;;;;4816223;29;20050;-66
2022/08/08 14:00:15;;;;;;;0.88;0.80;;;23.70;91.70;;;;;;4824819;29;20062;-67
2022/08/08 14:02:41;;;;;;;2.85;0.90;;;23.70;91.60;;;;;;4823685;29;20106;-66
2022/08/08 14:05:12;;;;;;;1.50;0.70;;;23.70;92.10;;;;;;4823403;29;20082;-66